KDVL

Devils Lake Regional Airport

Devils Lake, North Dakota, USA
METAR KDVL 272356Z AUTO 01012KT 10SM FEW065 27/14 A2987 RMK AO2 SLP123 T02670139 10278 20233 52005
Observed Flight Rules
May-27 @ 23:56 UTC (an hour ago) Visual Flight Rules
Wind Visibility Clouds
10° at 12 knots 10 miles
  • Few at 6,500' AGL
Temperatures Readings
Current 27°C / 81°F
Dewpoint 14°C / 57°F
Humidity 45%
Altimeter 29.87" Hg
Pressure 1012.3 hPa
Elevation 443
METAR KDVL 272356Z AUTO 01012KT 10SM FEW065 27/14 A2987 RMK AO2 SLP123 T02670139 10278 20233 52005
Observed Flight Rules
May-27 @ 23:56 UTC
(an hour ago)
VFR
Wind Visibility
10° at 12 knots 10 miles
Clouds
  • Few at 6,500' AGL
Temperature Dewpoint
27°C / 81°F 14°C / 57°F
Humidity Altimeter Pressure
45% 29.87" Hg 1012.3 hPa